TGZ weather

Angel Albino Corzo International Airport
Tuxtla GutiƩrrez, Chiapas, Mexico

Public forecast

Using degrees Celsius for public forecast. Weather courtesy of forecast.io.

Current aviation weather report (METAR) for Angel Albino Corzo International Airport

Retrieved 2019/12/07 04:42 UTC (2 hours ago):

MMTG 070442Z 32007KT 7SM SCT100 SCT300 22/18 A3012 RMK 8/032 HZY

Aviation forecast (TAF) for Angel Albino Corzo International Airport

Retrieved 2019/12/07 06:29 UTC (0 seconds ago):

TAF MMTG 070422Z 0706/0806 33005KT P6SM SCT030 TEMPO 0710/0714 3SM BR HZ FM071700 33010KT P6SM SCT030 FM080300 30005KT P6SM SCT020